sensor_id;sensor_type;location;lat;lon;timestamp;P1;durP1;ratioP1;P2;durP2;ratioP2
31424;SDS011;18054;51.572;7.372;2022-07-12T00:00:16;3.72;;;1.80;;
31424;SDS011;18054;51.572;7.372;2022-07-12T00:02:43;4.72;;;2.08;;
31424;SDS011;18054;51.572;7.372;2022-07-12T00:05:11;8.82;;;2.35;;
31424;SDS011;18054;51.572;7.372;2022-07-12T00:07:38;3.88;;;1.70;;
31424;SDS011;18054;51.572;7.372;2022-07-12T00:10:07;4.50;;;2.20;;
31424;SDS011;18054;51.572;7.372;2022-07-12T00:12:35;4.35;;;1.88;;
31424;SDS011;18054;51.572;7.372;2022-07-12T00:15:03;3.72;;;2.00;;
31424;SDS011;18054;51.572;7.372;2022-07-12T00:17:30;5.40;;;1.83;;
31424;SDS011;18054;51.572;7.372;2022-07-12T00:19:58;3.80;;;1.88;;
31424;SDS011;18054;51.572;7.372;2022-07-12T00:22:25;8.52;;;2.03;;
31424;SDS011;18054;51.572;7.372;2022-07-12T00:24:54;3.58;;;1.73;;
31424;SDS011;18054;51.572;7.372;2022-07-12T00:27:23;3.65;;;1.80;;
31424;SDS011;18054;51.572;7.372;2022-07-12T00:29:50;3.85;;;2.35;;
31424;SDS011;18054;51.572;7.372;2022-07-12T00:32:18;6.32;;;2.33;;
31424;SDS011;18054;51.572;7.372;2022-07-12T00:34:45;4.80;;;2.63;;
31424;SDS011;18054;51.572;7.372;2022-07-12T00:37:13;5.88;;;2.38;;
31424;SDS011;18054;51.572;7.372;2022-07-12T00:39:40;6.18;;;2.00;;
31424;SDS011;18054;51.572;7.372;2022-07-12T00:42:08;3.60;;;2.05;;
31424;SDS011;18054;51.572;7.372;2022-07-12T00:44:36;3.60;;;2.00;;
31424;SDS011;18054;51.572;7.372;2022-07-12T00:47:04;4.53;;;2.15;;
31424;SDS011;18054;51.572;7.372;2022-07-12T00:49:32;4.68;;;2.00;;
31424;SDS011;18054;51.572;7.372;2022-07-12T00:52:00;4.00;;;1.98;;
31424;SDS011;18054;51.572;7.372;2022-07-12T00:56:55;4.00;;;1.70;;
31424;SDS011;18054;51.572;7.372;2022-07-12T00:59:22;3.80;;;1.60;;
31424;SDS011;18054;51.572;7.372;2022-07-12T01:01:51;4.13;;;1.48;;
31424;SDS011;18054;51.572;7.372;2022-07-12T01:04:19;5.72;;;1.92;;
31424;SDS011;18054;51.572;7.372;2022-07-12T01:06:46;6.10;;;1.70;;
31424;SDS011;18054;51.572;7.372;2022-07-12T01:09:14;3.45;;;1.83;;
31424;SDS011;18054;51.572;7.372;2022-07-12T01:11:41;2.83;;;1.58;;
31424;SDS011;18054;51.572;7.372;2022-07-12T01:14:09;5.28;;;1.60;;
31424;SDS011;18054;51.572;7.372;2022-07-12T01:16:38;3.33;;;1.65;;
31424;SDS011;18054;51.572;7.372;2022-07-12T01:19:07;4.90;;;1.80;;
31424;SDS011;18054;51.572;7.372;2022-07-12T01:21:37;4.55;;;1.80;;
31424;SDS011;18054;51.572;7.372;2022-07-12T01:24:06;5.88;;;1.83;;
31424;SDS011;18054;51.572;7.372;2022-07-12T01:26:35;3.72;;;1.83;;
31424;SDS011;18054;51.572;7.372;2022-07-12T01:29:03;4.25;;;1.90;;
31424;SDS011;18054;51.572;7.372;2022-07-12T01:31:33;5.88;;;1.70;;
31424;SDS011;18054;51.572;7.372;2022-07-12T01:34:01;4.10;;;1.92;;
31424;SDS011;18054;51.572;7.372;2022-07-12T01:36:29;6.25;;;2.13;;
31424;SDS011;18054;51.572;7.372;2022-07-12T01:38:56;5.55;;;2.20;;
31424;SDS011;18054;51.572;7.372;2022-07-12T01:41:25;4.05;;;2.20;;
31424;SDS011;18054;51.572;7.372;2022-07-12T01:43:52;5.00;;;2.20;;
31424;SDS011;18054;51.572;7.372;2022-07-12T01:46:20;3.47;;;1.90;;
31424;SDS011;18054;51.572;7.372;2022-07-12T01:48:47;4.30;;;2.45;;
31424;SDS011;18054;51.572;7.372;2022-07-12T01:51:15;4.28;;;1.98;;
31424;SDS011;18054;51.572;7.372;2022-07-12T01:53:42;4.10;;;2.08;;
31424;SDS011;18054;51.572;7.372;2022-07-12T01:56:10;3.70;;;1.98;;
31424;SDS011;18054;51.572;7.372;2022-07-12T01:58:39;6.47;;;2.55;;
31424;SDS011;18054;51.572;7.372;2022-07-12T02:01:06;7.40;;;2.45;;
31424;SDS011;18054;51.572;7.372;2022-07-12T02:03:35;4.72;;;2.10;;
31424;SDS011;18054;51.572;7.372;2022-07-12T02:06:03;7.78;;;2.58;;
31424;SDS011;18054;51.572;7.372;2022-07-12T02:08:31;4.95;;;2.10;;
31424;SDS011;18054;51.572;7.372;2022-07-12T02:10:58;5.32;;;2.22;;
31424;SDS011;18054;51.572;7.372;2022-07-12T02:13:25;5.00;;;1.85;;
31424;SDS011;18054;51.572;7.372;2022-07-12T02:15:54;4.05;;;1.90;;
31424;SDS011;18054;51.572;7.372;2022-07-12T02:18:22;3.33;;;1.60;;
31424;SDS011;18054;51.572;7.372;2022-07-12T02:20:49;6.00;;;2.28;;
31424;SDS011;18054;51.572;7.372;2022-07-12T02:23:17;5.20;;;1.83;;
31424;SDS011;18054;51.572;7.372;2022-07-12T02:25:44;3.80;;;1.90;;
31424;SDS011;18054;51.572;7.372;2022-07-12T02:28:12;3.28;;;1.77;;
31424;SDS011;18054;51.572;7.372;2022-07-12T02:30:39;3.25;;;1.83;;
31424;SDS011;18054;51.572;7.372;2022-07-12T02:33:08;6.05;;;2.33;;
31424;SDS011;18054;51.572;7.372;2022-07-12T02:35:35;8.18;;;1.77;;
31424;SDS011;18054;51.572;7.372;2022-07-12T02:38:03;9.50;;;2.08;;
31424;SDS011;18054;51.572;7.372;2022-07-12T02:40:30;2.35;;;1.33;;
31424;SDS011;18054;51.572;7.372;2022-07-12T02:43:15;9.48;;;1.67;;
31424;SDS011;18054;51.572;7.372;2022-07-12T02:45:43;4.57;;;2.03;;
31424;SDS011;18054;51.572;7.372;2022-07-12T02:48:12;6.28;;;1.80;;
31424;SDS011;18054;51.572;7.372;2022-07-12T02:50:39;4.05;;;2.08;;
31424;SDS011;18054;51.572;7.372;2022-07-12T02:53:07;5.25;;;2.65;;
31424;SDS011;18054;51.572;7.372;2022-07-12T02:55:34;3.83;;;2.03;;
31424;SDS011;18054;51.572;7.372;2022-07-12T02:58:02;4.32;;;2.03;;
31424;SDS011;18054;51.572;7.372;2022-07-12T03:00:30;9.30;;;1.95;;
31424;SDS011;18054;51.572;7.372;2022-07-12T03:02:57;5.90;;;2.13;;
31424;SDS011;18054;51.572;7.372;2022-07-12T03:05:26;5.47;;;2.10;;
31424;SDS011;18054;51.572;7.372;2022-07-12T03:07:53;4.82;;;2.00;;
31424;SDS011;18054;51.572;7.372;2022-07-12T03:10:21;5.28;;;2.00;;
31424;SDS011;18054;51.572;7.372;2022-07-12T03:12:48;6.57;;;2.45;;
31424;SDS011;18054;51.572;7.372;2022-07-12T03:15:16;4.15;;;2.08;;
31424;SDS011;18054;51.572;7.372;2022-07-12T03:17:44;6.30;;;1.73;;
31424;SDS011;18054;51.572;7.372;2022-07-12T03:20:11;4.57;;;1.92;;
31424;SDS011;18054;51.572;7.372;2022-07-12T03:22:42;4.10;;;1.85;;
31424;SDS011;18054;51.572;7.372;2022-07-12T03:25:10;4.80;;;1.95;;
31424;SDS011;18054;51.572;7.372;2022-07-12T03:27:38;5.03;;;2.60;;
31424;SDS011;18054;51.572;7.372;2022-07-12T03:30:10;3.90;;;1.90;;
31424;SDS011;18054;51.572;7.372;2022-07-12T03:32:37;7.50;;;1.90;;
31424;SDS011;18054;51.572;7.372;2022-07-12T03:35:05;8.52;;;1.92;;
31424;SDS011;18054;51.572;7.372;2022-07-12T03:40:02;5.50;;;2.25;;
31424;SDS011;18054;51.572;7.372;2022-07-12T03:42:29;5.55;;;2.15;;
31424;SDS011;18054;51.572;7.372;2022-07-12T03:44:56;3.80;;;1.95;;
31424;SDS011;18054;51.572;7.372;2022-07-12T03:47:24;6.30;;;2.35;;
31424;SDS011;18054;51.572;7.372;2022-07-12T03:49:52;6.10;;;2.55;;
31424;SDS011;18054;51.572;7.372;2022-07-12T03:52:19;6.72;;;2.72;;
31424;SDS011;18054;51.572;7.372;2022-07-12T03:54:47;6.63;;;2.08;;
31424;SDS011;18054;51.572;7.372;2022-07-12T03:57:15;5.28;;;2.60;;
31424;SDS011;18054;51.572;7.372;2022-07-12T03:59:43;13.00;;;2.72;;
31424;SDS011;18054;51.572;7.372;2022-07-12T04:02:11;10.32;;;2.55;;
31424;SDS011;18054;51.572;7.372;2022-07-12T04:07:07;21.33;;;2.58;;
31424;SDS011;18054;51.572;7.372;2022-07-12T04:09:35;6.72;;;3.03;;
31424;SDS011;18054;51.572;7.372;2022-07-12T04:12:03;8.38;;;2.95;;
31424;SDS011;18054;51.572;7.372;2022-07-12T04:14:31;4.72;;;2.25;;
31424;SDS011;18054;51.572;7.372;2022-07-12T04:16:59;6.65;;;2.60;;
31424;SDS011;18054;51.572;7.372;2022-07-12T04:19:26;6.78;;;2.30;;
31424;SDS011;18054;51.572;7.372;2022-07-12T04:24:22;9.55;;;2.70;;
31424;SDS011;18054;51.572;7.372;2022-07-12T04:26:49;7.05;;;3.58;;
31424;SDS011;18054;51.572;7.372;2022-07-12T04:29:17;5.57;;;2.75;;
31424;SDS011;18054;51.572;7.372;2022-07-12T04:31:46;6.68;;;2.50;;
31424;SDS011;18054;51.572;7.372;2022-07-12T04:34:13;8.73;;;2.90;;
31424;SDS011;18054;51.572;7.372;2022-07-12T04:36:43;8.98;;;2.58;;
31424;SDS011;18054;51.572;7.372;2022-07-12T04:41:38;10.02;;;3.10;;
31424;SDS011;18054;51.572;7.372;2022-07-12T04:44:05;9.32;;;2.65;;
31424;SDS011;18054;51.572;7.372;2022-07-12T04:46:33;5.10;;;2.42;;
31424;SDS011;18054;51.572;7.372;2022-07-12T04:49:02;5.05;;;2.30;;
31424;SDS011;18054;51.572;7.372;2022-07-12T04:51:31;8.98;;;2.30;;
31424;SDS011;18054;51.572;7.372;2022-07-12T04:53:59;10.18;;;2.72;;
31424;SDS011;18054;51.572;7.372;2022-07-12T04:56:26;5.43;;;2.17;;
31424;SDS011;18054;51.572;7.372;2022-07-12T04:58:54;15.05;;;3.15;;
31424;SDS011;18054;51.572;7.372;2022-07-12T05:01:26;9.98;;;2.60;;
31424;SDS011;18054;51.572;7.372;2022-07-12T05:03:53;10.00;;;2.50;;
31424;SDS011;18054;51.572;7.372;2022-07-12T05:06:22;12.18;;;2.65;;
31424;SDS011;18054;51.572;7.372;2022-07-12T05:08:50;9.20;;;2.42;;
31424;SDS011;18054;51.572;7.372;2022-07-12T05:11:18;8.27;;;2.70;;
31424;SDS011;18054;51.572;7.372;2022-07-12T05:13:45;10.75;;;2.53;;
31424;SDS011;18054;51.572;7.372;2022-07-12T05:16:13;8.65;;;4.00;;
31424;SDS011;18054;51.572;7.372;2022-07-12T05:18:40;19.15;;;3.30;;
31424;SDS011;18054;51.572;7.372;2022-07-12T05:21:08;10.23;;;3.05;;
31424;SDS011;18054;51.572;7.372;2022-07-12T05:23:38;15.32;;;2.80;;
31424;SDS011;18054;51.572;7.372;2022-07-12T05:26:05;12.25;;;3.08;;
31424;SDS011;18054;51.572;7.372;2022-07-12T05:28:39;8.40;;;3.33;;
31424;SDS011;18054;51.572;7.372;2022-07-12T05:31:08;7.78;;;3.15;;
31424;SDS011;18054;51.572;7.372;2022-07-12T05:33:36;18.67;;;3.50;;
31424;SDS011;18054;51.572;7.372;2022-07-12T05:36:04;17.85;;;3.63;;
31424;SDS011;18054;51.572;7.372;2022-07-12T05:38:31;8.13;;;3.47;;
31424;SDS011;18054;51.572;7.372;2022-07-12T05:41:00;19.90;;;4.65;;
31424;SDS011;18054;51.572;7.372;2022-07-12T05:43:27;10.88;;;4.50;;
31424;SDS011;18054;51.572;7.372;2022-07-12T05:45:55;9.07;;;4.20;;
31424;SDS011;18054;51.572;7.372;2022-07-12T05:48:23;8.55;;;5.05;;
31424;SDS011;18054;51.572;7.372;2022-07-12T05:50:50;12.50;;;5.80;;
31424;SDS011;18054;51.572;7.372;2022-07-12T05:53:18;10.95;;;5.10;;
31424;SDS011;18054;51.572;7.372;2022-07-12T05:55:48;13.05;;;5.65;;
31424;SDS011;18054;51.572;7.372;2022-07-12T05:58:16;15.73;;;6.20;;
31424;SDS011;18054;51.572;7.372;2022-07-12T06:00:45;9.77;;;6.30;;
31424;SDS011;18054;51.572;7.372;2022-07-12T06:03:13;16.42;;;8.13;;
31424;SDS011;18054;51.572;7.372;2022-07-12T06:05:41;19.55;;;9.45;;
31424;SDS011;18054;51.572;7.372;2022-07-12T06:08:08;22.70;;;10.82;;
31424;SDS011;18054;51.572;7.372;2022-07-12T06:10:36;15.88;;;10.07;;
31424;SDS011;18054;51.572;7.372;2022-07-12T06:13:03;23.35;;;9.68;;
31424;SDS011;18054;51.572;7.372;2022-07-12T06:15:32;22.10;;;8.95;;
31424;SDS011;18054;51.572;7.372;2022-07-12T06:18:00;25.65;;;8.45;;
31424;SDS011;18054;51.572;7.372;2022-07-12T06:22:55;23.45;;;10.30;;
31424;SDS011;18054;51.572;7.372;2022-07-12T06:25:22;24.15;;;10.13;;
31424;SDS011;18054;51.572;7.372;2022-07-12T06:28:10;24.95;;;13.05;;
31424;SDS011;18054;51.572;7.372;2022-07-12T06:30:39;21.35;;;12.32;;
31424;SDS011;18054;51.572;7.372;2022-07-12T06:33:06;28.45;;;10.15;;
31424;SDS011;18054;51.572;7.372;2022-07-12T06:35:34;32.03;;;10.82;;
31424;SDS011;18054;51.572;7.372;2022-07-12T06:38:02;31.17;;;8.63;;
31424;SDS011;18054;51.572;7.372;2022-07-12T06:42:57;35.85;;;8.35;;
31424;SDS011;18054;51.572;7.372;2022-07-12T06:45:24;16.52;;;7.93;;
31424;SDS011;18054;51.572;7.372;2022-07-12T06:47:53;30.13;;;7.10;;
31424;SDS011;18054;51.572;7.372;2022-07-12T06:50:20;24.67;;;7.10;;
31424;SDS011;18054;51.572;7.372;2022-07-12T06:52:48;20.85;;;6.70;;
31424;SDS011;18054;51.572;7.372;2022-07-12T06:55:16;18.27;;;5.75;;
31424;SDS011;18054;51.572;7.372;2022-07-12T06:57:43;15.75;;;6.10;;
31424;SDS011;18054;51.572;7.372;2022-07-12T07:00:11;20.35;;;6.40;;
31424;SDS011;18054;51.572;7.372;2022-07-12T07:02:38;15.27;;;6.40;;
31424;SDS011;18054;51.572;7.372;2022-07-12T07:05:08;13.23;;;6.53;;
31424;SDS011;18054;51.572;7.372;2022-07-12T07:07:38;15.00;;;5.70;;
31424;SDS011;18054;51.572;7.372;2022-07-12T07:10:05;12.07;;;5.90;;
31424;SDS011;18054;51.572;7.372;2022-07-12T07:12:33;13.80;;;6.15;;
31424;SDS011;18054;51.572;7.372;2022-07-12T07:15:00;13.95;;;5.75;;
31424;SDS011;18054;51.572;7.372;2022-07-12T07:17:28;11.32;;;3.85;;
31424;SDS011;18054;51.572;7.372;2022-07-12T07:19:55;17.08;;;4.72;;
31424;SDS011;18054;51.572;7.372;2022-07-12T07:22:24;6.63;;;3.53;;
31424;SDS011;18054;51.572;7.372;2022-07-12T07:24:51;9.68;;;4.13;;
31424;SDS011;18054;51.572;7.372;2022-07-12T07:27:19;7.55;;;4.30;;
31424;SDS011;18054;51.572;7.372;2022-07-12T07:29:47;10.95;;;4.18;;
31424;SDS011;18054;51.572;7.372;2022-07-12T07:32:31;10.18;;;3.75;;
31424;SDS011;18054;51.572;7.372;2022-07-12T07:34:59;8.68;;;3.78;;
31424;SDS011;18054;51.572;7.372;2022-07-12T07:37:28;11.25;;;4.10;;
31424;SDS011;18054;51.572;7.372;2022-07-12T07:39:55;7.63;;;3.80;;
31424;SDS011;18054;51.572;7.372;2022-07-12T07:42:23;5.78;;;3.33;;
31424;SDS011;18054;51.572;7.372;2022-07-12T07:44:50;7.68;;;3.58;;
31424;SDS011;18054;51.572;7.372;2022-07-12T07:50:18;6.95;;;2.97;;
31424;SDS011;18054;51.572;7.372;2022-07-12T07:55:18;6.97;;;2.97;;
31424;SDS011;18054;51.572;7.372;2022-07-12T07:57:45;6.10;;;2.70;;
31424;SDS011;18054;51.572;7.372;2022-07-12T08:00:14;5.22;;;2.70;;
31424;SDS011;18054;51.572;7.372;2022-07-12T08:02:41;5.05;;;2.50;;
31424;SDS011;18054;51.572;7.372;2022-07-12T08:05:09;4.32;;;2.38;;
31424;SDS011;18054;51.572;7.372;2022-07-12T08:07:36;3.92;;;1.90;;
31424;SDS011;18054;51.572;7.372;2022-07-12T08:10:22;8.50;;;2.20;;
31424;SDS011;18054;51.572;7.372;2022-07-12T08:12:49;9.38;;;3.03;;
31424;SDS011;18054;51.572;7.372;2022-07-12T08:15:17;6.75;;;2.33;;
31424;SDS011;18054;51.572;7.372;2022-07-12T08:17:45;8.82;;;2.13;;
31424;SDS011;18054;51.572;7.372;2022-07-12T08:20:19;3.17;;;1.88;;
31424;SDS011;18054;51.572;7.372;2022-07-12T08:23:07;3.38;;;1.75;;
31424;SDS011;18054;51.572;7.372;2022-07-12T08:25:36;4.95;;;1.85;;
31424;SDS011;18054;51.572;7.372;2022-07-12T08:28:03;6.40;;;1.83;;
31424;SDS011;18054;51.572;7.372;2022-07-12T08:30:31;5.00;;;1.60;;
31424;SDS011;18054;51.572;7.372;2022-07-12T08:32:58;5.55;;;2.70;;
31424;SDS011;18054;51.572;7.372;2022-07-12T08:35:26;6.10;;;2.15;;
31424;SDS011;18054;51.572;7.372;2022-07-12T08:37:54;6.25;;;1.42;;
31424;SDS011;18054;51.572;7.372;2022-07-12T08:40:22;5.47;;;1.60;;
31424;SDS011;18054;51.572;7.372;2022-07-12T08:42:51;3.50;;;1.70;;
31424;SDS011;18054;51.572;7.372;2022-07-12T08:45:18;6.25;;;1.90;;
31424;SDS011;18054;51.572;7.372;2022-07-12T08:47:46;2.80;;;1.30;;
31424;SDS011;18054;51.572;7.372;2022-07-12T08:50:15;11.02;;;1.40;;
31424;SDS011;18054;51.572;7.372;2022-07-12T08:52:45;5.03;;;1.55;;
31424;SDS011;18054;51.572;7.372;2022-07-12T08:55:16;5.00;;;1.55;;
31424;SDS011;18054;51.572;7.372;2022-07-12T08:57:44;5.55;;;1.50;;
31424;SDS011;18054;51.572;7.372;2022-07-12T09:02:50;4.43;;;1.50;;
31424;SDS011;18054;51.572;7.372;2022-07-12T09:05:20;3.05;;;1.15;;
31424;SDS011;18054;51.572;7.372;2022-07-12T09:07:48;2.33;;;0.98;;
31424;SDS011;18054;51.572;7.372;2022-07-12T09:10:17;5.70;;;1.20;;
31424;SDS011;18054;51.572;7.372;2022-07-12T09:12:44;7.05;;;1.00;;
31424;SDS011;18054;51.572;7.372;2022-07-12T09:15:14;2.97;;;1.10;;
31424;SDS011;18054;51.572;7.372;2022-07-12T09:17:45;4.88;;;1.83;;
31424;SDS011;18054;51.572;7.372;2022-07-12T09:20:15;9.57;;;1.15;;
31424;SDS011;18054;51.572;7.372;2022-07-12T09:22:47;10.73;;;0.90;;
31424;SDS011;18054;51.572;7.372;2022-07-12T09:25:17;3.97;;;1.08;;
31424;SDS011;18054;51.572;7.372;2022-07-12T09:27:49;11.35;;;1.25;;
31424;SDS011;18054;51.572;7.372;2022-07-12T09:30:18;2.65;;;1.00;;
31424;SDS011;18054;51.572;7.372;2022-07-12T09:32:49;7.63;;;1.20;;
31424;SDS011;18054;51.572;7.372;2022-07-12T09:35:36;3.10;;;0.98;;
31424;SDS011;18054;51.572;7.372;2022-07-12T09:38:28;1.52;;;0.70;;
31424;SDS011;18054;51.572;7.372;2022-07-12T09:40:55;10.02;;;1.60;;
31424;SDS011;18054;51.572;7.372;2022-07-12T09:43:23;5.32;;;0.80;;
31424;SDS011;18054;51.572;7.372;2022-07-12T09:45:51;6.38;;;1.02;;
31424;SDS011;18054;51.572;7.372;2022-07-12T09:48:20;1.80;;;0.88;;
31424;SDS011;18054;51.572;7.372;2022-07-12T09:50:49;3.63;;;0.88;;
31424;SDS011;18054;51.572;7.372;2022-07-12T09:53:19;3.05;;;0.75;;
31424;SDS011;18054;51.572;7.372;2022-07-12T09:55:49;2.67;;;0.90;;
31424;SDS011;18054;51.572;7.372;2022-07-12T09:58:24;1.70;;;1.00;;
31424;SDS011;18054;51.572;7.372;2022-07-12T10:00:53;1.98;;;0.65;;
31424;SDS011;18054;51.572;7.372;2022-07-12T10:03:21;4.43;;;1.02;;
31424;SDS011;18054;51.572;7.372;2022-07-12T10:05:51;2.03;;;0.85;;
31424;SDS011;18054;51.572;7.372;2022-07-12T10:08:19;3.90;;;0.70;;
31424;SDS011;18054;51.572;7.372;2022-07-12T10:10:47;3.33;;;0.57;;
31424;SDS011;18054;51.572;7.372;2022-07-12T10:13:16;1.52;;;0.55;;
31424;SDS011;18054;51.572;7.372;2022-07-12T10:15:44;4.38;;;1.90;;
31424;SDS011;18054;51.572;7.372;2022-07-12T10:18:16;4.22;;;0.70;;
31424;SDS011;18054;51.572;7.372;2022-07-12T10:20:45;6.93;;;0.85;;
31424;SDS011;18054;51.572;7.372;2022-07-12T10:23:31;4.65;;;0.77;;
31424;SDS011;18054;51.572;7.372;2022-07-12T10:26:01;1.05;;;0.40;;
31424;SDS011;18054;51.572;7.372;2022-07-12T10:31:15;1.77;;;0.65;;
31424;SDS011;18054;51.572;7.372;2022-07-12T10:33:43;4.63;;;0.95;;
31424;SDS011;18054;51.572;7.372;2022-07-12T10:38:42;1.75;;;0.70;;
31424;SDS011;18054;51.572;7.372;2022-07-12T10:41:18;3.63;;;0.88;;
31424;SDS011;18054;51.572;7.372;2022-07-12T10:43:46;3.88;;;0.68;;
31424;SDS011;18054;51.572;7.372;2022-07-12T10:46:32;2.63;;;0.77;;
31424;SDS011;18054;51.572;7.372;2022-07-12T10:54:31;3.20;;;0.98;;
31424;SDS011;18054;51.572;7.372;2022-07-12T10:56:58;3.13;;;0.82;;
31424;SDS011;18054;51.572;7.372;2022-07-12T10:59:26;3.88;;;0.90;;
31424;SDS011;18054;51.572;7.372;2022-07-12T11:01:54;1.55;;;0.70;;
31424;SDS011;18054;51.572;7.372;2022-07-12T11:04:22;4.85;;;0.70;;
31424;SDS011;18054;51.572;7.372;2022-07-12T11:06:49;1.52;;;0.80;;
31424;SDS011;18054;51.572;7.372;2022-07-12T11:09:21;1.65;;;0.60;;
31424;SDS011;18054;51.572;7.372;2022-07-12T11:11:51;2.65;;;0.80;;
31424;SDS011;18054;51.572;7.372;2022-07-12T11:14:20;0.98;;;0.60;;
31424;SDS011;18054;51.572;7.372;2022-07-12T11:16:48;6.72;;;0.50;;
31424;SDS011;18054;51.572;7.372;2022-07-12T11:19:20;1.25;;;0.50;;
31424;SDS011;18054;51.572;7.372;2022-07-12T11:21:49;4.13;;;0.70;;
31424;SDS011;18054;51.572;7.372;2022-07-12T11:24:21;2.60;;;0.60;;
31424;SDS011;18054;51.572;7.372;2022-07-12T11:26:50;7.93;;;0.85;;
31424;SDS011;18054;51.572;7.372;2022-07-12T11:29:18;3.03;;;0.63;;
31424;SDS011;18054;51.572;7.372;2022-07-12T11:31:46;1.27;;;0.43;;
31424;SDS011;18054;51.572;7.372;2022-07-12T11:34:20;5.78;;;0.75;;
31424;SDS011;18054;51.572;7.372;2022-07-12T11:36:50;2.45;;;0.90;;
31424;SDS011;18054;51.572;7.372;2022-07-12T11:39:29;2.53;;;0.88;;
31424;SDS011;18054;51.572;7.372;2022-07-12T11:41:58;1.42;;;0.55;;
31424;SDS011;18054;51.572;7.372;2022-07-12T11:44:40;4.40;;;0.80;;
31424;SDS011;18054;51.572;7.372;2022-07-12T11:47:08;3.10;;;0.60;;
31424;SDS011;18054;51.572;7.372;2022-07-12T11:49:35;4.22;;;0.50;;
31424;SDS011;18054;51.572;7.372;2022-07-12T11:52:04;2.97;;;0.70;;
31424;SDS011;18054;51.572;7.372;2022-07-12T11:54:31;2.35;;;0.70;;
31424;SDS011;18054;51.572;7.372;2022-07-12T11:57:07;3.42;;;0.60;;
31424;SDS011;18054;51.572;7.372;2022-07-12T11:59:35;2.92;;;0.73;;
31424;SDS011;18054;51.572;7.372;2022-07-12T12:02:03;3.08;;;0.73;;
31424;SDS011;18054;51.572;7.372;2022-07-12T12:04:31;1.35;;;0.60;;
31424;SDS011;18054;51.572;7.372;2022-07-12T12:06:59;4.25;;;0.77;;
31424;SDS011;18054;51.572;7.372;2022-07-12T12:09:26;7.15;;;0.57;;
31424;SDS011;18054;51.572;7.372;2022-07-12T12:11:54;2.40;;;0.82;;
31424;SDS011;18054;51.572;7.372;2022-07-12T12:14:23;2.53;;;0.70;;
31424;SDS011;18054;51.572;7.372;2022-07-12T12:16:50;3.90;;;0.60;;
31424;SDS011;18054;51.572;7.372;2022-07-12T12:19:18;9.40;;;0.90;;
31424;SDS011;18054;51.572;7.372;2022-07-12T12:21:51;1.17;;;0.40;;
31424;SDS011;18054;51.572;7.372;2022-07-12T12:24:18;2.00;;;0.60;;
31424;SDS011;18054;51.572;7.372;2022-07-12T12:26:46;1.10;;;0.60;;
31424;SDS011;18054;51.572;7.372;2022-07-12T12:29:13;1.83;;;0.47;;
31424;SDS011;18054;51.572;7.372;2022-07-12T12:31:51;5.88;;;1.08;;
31424;SDS011;18054;51.572;7.372;2022-07-12T12:34:23;5.13;;;0.70;;
31424;SDS011;18054;51.572;7.372;2022-07-12T12:36:50;1.63;;;0.57;;
31424;SDS011;18054;51.572;7.372;2022-07-12T12:39:28;3.13;;;0.40;;
31424;SDS011;18054;51.572;7.372;2022-07-12T12:41:56;2.28;;;0.43;;
31424;SDS011;18054;51.572;7.372;2022-07-12T12:44:23;6.45;;;0.60;;
31424;SDS011;18054;51.572;7.372;2022-07-12T12:46:52;2.70;;;0.63;;
31424;SDS011;18054;51.572;7.372;2022-07-12T12:52:05;1.98;;;0.50;;
31424;SDS011;18054;51.572;7.372;2022-07-12T12:54:33;3.47;;;0.63;;
31424;SDS011;18054;51.572;7.372;2022-07-12T12:57:01;2.42;;;0.50;;
31424;SDS011;18054;51.572;7.372;2022-07-12T12:59:29;2.28;;;0.60;;
31424;SDS011;18054;51.572;7.372;2022-07-12T13:01:57;0.90;;;0.38;;
31424;SDS011;18054;51.572;7.372;2022-07-12T13:04:27;1.75;;;0.52;;
31424;SDS011;18054;51.572;7.372;2022-07-12T13:06:54;1.80;;;0.57;;
31424;SDS011;18054;51.572;7.372;2022-07-12T13:09:22;3.85;;;0.80;;
31424;SDS011;18054;51.572;7.372;2022-07-12T13:11:50;1.30;;;0.50;;
31424;SDS011;18054;51.572;7.372;2022-07-12T13:14:18;2.55;;;0.60;;
31424;SDS011;18054;51.572;7.372;2022-07-12T13:16:45;5.07;;;0.70;;
31424;SDS011;18054;51.572;7.372;2022-07-12T13:19:14;4.05;;;0.65;;
31424;SDS011;18054;51.572;7.372;2022-07-12T13:21:42;2.20;;;0.55;;
31424;SDS011;18054;51.572;7.372;2022-07-12T13:24:09;2.10;;;0.50;;
31424;SDS011;18054;51.572;7.372;2022-07-12T13:26:37;3.17;;;0.82;;
31424;SDS011;18054;51.572;7.372;2022-07-12T13:29:04;4.60;;;1.27;;
31424;SDS011;18054;51.572;7.372;2022-07-12T13:31:32;3.75;;;0.80;;
31424;SDS011;18054;51.572;7.372;2022-07-12T13:34:00;9.45;;;0.82;;
31424;SDS011;18054;51.572;7.372;2022-07-12T13:36:28;4.03;;;0.73;;
31424;SDS011;18054;51.572;7.372;2022-07-12T13:38:56;3.55;;;0.80;;
31424;SDS011;18054;51.572;7.372;2022-07-12T13:41:44;2.70;;;0.68;;
31424;SDS011;18054;51.572;7.372;2022-07-12T13:44:11;2.25;;;0.93;;
31424;SDS011;18054;51.572;7.372;2022-07-12T13:46:47;2.45;;;1.10;;
31424;SDS011;18054;51.572;7.372;2022-07-12T13:49:14;3.75;;;0.90;;
31424;SDS011;18054;51.572;7.372;2022-07-12T13:51:43;4.13;;;0.90;;
31424;SDS011;18054;51.572;7.372;2022-07-12T13:54:11;4.13;;;0.80;;
31424;SDS011;18054;51.572;7.372;2022-07-12T13:56:38;3.50;;;1.13;;
31424;SDS011;18054;51.572;7.372;2022-07-12T13:59:06;6.95;;;1.33;;
31424;SDS011;18054;51.572;7.372;2022-07-12T14:01:34;8.75;;;1.17;;
31424;SDS011;18054;51.572;7.372;2022-07-12T14:04:01;6.00;;;1.35;;
31424;SDS011;18054;51.572;7.372;2022-07-12T14:06:29;2.58;;;0.85;;
31424;SDS011;18054;51.572;7.372;2022-07-12T14:08:58;4.90;;;1.08;;
31424;SDS011;18054;51.572;7.372;2022-07-12T14:11:26;5.00;;;1.15;;
31424;SDS011;18054;51.572;7.372;2022-07-12T14:13:54;4.88;;;1.00;;
31424;SDS011;18054;51.572;7.372;2022-07-12T14:16:22;4.15;;;1.05;;
31424;SDS011;18054;51.572;7.372;2022-07-12T14:18:49;5.40;;;0.90;;
31424;SDS011;18054;51.572;7.372;2022-07-12T14:21:17;5.10;;;1.25;;
31424;SDS011;18054;51.572;7.372;2022-07-12T14:23:44;3.85;;;1.10;;
31424;SDS011;18054;51.572;7.372;2022-07-12T14:26:13;4.55;;;1.17;;
31424;SDS011;18054;51.572;7.372;2022-07-12T14:28:40;6.53;;;1.20;;
31424;SDS011;18054;51.572;7.372;2022-07-12T14:31:08;3.00;;;0.90;;
31424;SDS011;18054;51.572;7.372;2022-07-12T14:33:36;3.67;;;1.10;;
31424;SDS011;18054;51.572;7.372;2022-07-12T14:36:03;7.43;;;1.00;;
31424;SDS011;18054;51.572;7.372;2022-07-12T14:38:30;4.53;;;1.33;;
31424;SDS011;18054;51.572;7.372;2022-07-12T14:40:58;7.20;;;1.67;;
31424;SDS011;18054;51.572;7.372;2022-07-12T14:43:27;10.52;;;1.35;;
31424;SDS011;18054;51.572;7.372;2022-07-12T14:45:54;2.80;;;1.10;;
31424;SDS011;18054;51.572;7.372;2022-07-12T14:48:22;9.95;;;1.33;;
31424;SDS011;18054;51.572;7.372;2022-07-12T14:50:49;3.22;;;1.27;;
31424;SDS011;18054;51.572;7.372;2022-07-12T14:53:19;4.45;;;1.80;;
31424;SDS011;18054;51.572;7.372;2022-07-12T14:55:46;3.83;;;1.23;;
31424;SDS011;18054;51.572;7.372;2022-07-12T14:58:15;4.30;;;1.48;;
31424;SDS011;18054;51.572;7.372;2022-07-12T15:00:44;7.82;;;1.50;;
31424;SDS011;18054;51.572;7.372;2022-07-12T15:03:11;5.05;;;1.38;;
31424;SDS011;18054;51.572;7.372;2022-07-12T15:05:39;6.93;;;1.45;;
31424;SDS011;18054;51.572;7.372;2022-07-12T15:08:07;7.38;;;1.80;;
31424;SDS011;18054;51.572;7.372;2022-07-12T15:10:34;5.65;;;1.58;;
31424;SDS011;18054;51.572;7.372;2022-07-12T15:13:03;4.20;;;1.27;;
31424;SDS011;18054;51.572;7.372;2022-07-12T15:15:30;5.57;;;1.40;;
31424;SDS011;18054;51.572;7.372;2022-07-12T15:17:59;9.55;;;1.67;;
31424;SDS011;18054;51.572;7.372;2022-07-12T15:20:27;8.82;;;1.58;;
31424;SDS011;18054;51.572;7.372;2022-07-12T15:22:59;8.65;;;1.65;;
31424;SDS011;18054;51.572;7.372;2022-07-12T15:25:26;5.80;;;1.50;;
31424;SDS011;18054;51.572;7.372;2022-07-12T15:27:54;5.80;;;1.40;;
31424;SDS011;18054;51.572;7.372;2022-07-12T15:30:22;7.75;;;1.50;;
31424;SDS011;18054;51.572;7.372;2022-07-12T15:35:20;6.00;;;1.80;;